Erieau, Canada
Current Conditions -  °F | °C
As of 12:00 AM on Thursday 23 Oct 2014 (Local Time) from CYCK Reporting Station
Clear Clear  
Wind Chill: 36°   Ceiling: Unl
Heat Index: 41°   Visibility: 9mi
Dew Point: 39°   Wind: 7mph
Humidity: 93%   Direction: 340°NNW
Pressure: 30.25"   Gusts: NA
Location:  42.25°N, 81.92°W
Report Text: CYCK 230400Z AUTO 34006KT 9SM CLR 05/04 A3025 RMK SLP247
Loading
Personal Weather Stations






























Interactive Weather Map
Tropical Storm Tracking
New forecast layout! Learn more

10-Day Weather Forecast

Advertisements
Track Severe Weather on mobile